sensor_id;sensor_type;location;lat;lon;timestamp;temperature;humidity
52323;DHT22;38263;52.920;6.238;2022-08-05T00:01:48;19.00;99.90
52323;DHT22;38263;52.920;6.238;2022-08-05T00:04:14;19.10;99.90
52323;DHT22;38263;52.920;6.238;2022-08-05T00:06:40;19.10;99.90
52323;DHT22;38263;52.920;6.238;2022-08-05T00:09:06;19.10;99.90
52323;DHT22;38263;52.920;6.238;2022-08-05T00:11:31;19.10;99.90
52323;DHT22;38263;52.920;6.238;2022-08-05T00:13:57;18.80;99.90
52323;DHT22;38263;52.920;6.238;2022-08-05T00:16:22;19.20;99.90
52323;DHT22;38263;52.920;6.238;2022-08-05T00:18:48;18.90;99.90
52323;DHT22;38263;52.920;6.238;2022-08-05T00:21:15;18.90;99.90
52323;DHT22;38263;52.920;6.238;2022-08-05T00:23:42;18.80;99.90
52323;DHT22;38263;52.920;6.238;2022-08-05T00:26:08;18.70;99.90
52323;DHT22;38263;52.920;6.238;2022-08-05T00:28:34;18.90;99.90
52323;DHT22;38263;52.920;6.238;2022-08-05T00:31:00;18.80;99.90
52323;DHT22;38263;52.920;6.238;2022-08-05T00:33:25;18.90;99.90
52323;DHT22;38263;52.920;6.238;2022-08-05T00:35:51;18.70;99.90
52323;DHT22;38263;52.920;6.238;2022-08-05T00:38:16;18.80;99.90
52323;DHT22;38263;52.920;6.238;2022-08-05T00:40:47;19.00;99.90
52323;DHT22;38263;52.920;6.238;2022-08-05T00:43:13;18.90;99.90
52323;DHT22;38263;52.920;6.238;2022-08-05T00:45:39;19.00;99.90
52323;DHT22;38263;52.920;6.238;2022-08-05T00:48:06;18.80;99.90
52323;DHT22;38263;52.920;6.238;2022-08-05T00:50:32;18.90;99.90
52323;DHT22;38263;52.920;6.238;2022-08-05T00:52:57;18.90;99.90
52323;DHT22;38263;52.920;6.238;2022-08-05T00:55:23;18.70;99.90
52323;DHT22;38263;52.920;6.238;2022-08-05T00:57:48;18.60;99.90
52323;DHT22;38263;52.920;6.238;2022-08-05T01:00:14;18.90;99.90
52323;DHT22;38263;52.920;6.238;2022-08-05T01:02:39;18.60;99.90
52323;DHT22;38263;52.920;6.238;2022-08-05T01:05:05;18.70;99.90
52323;DHT22;38263;52.920;6.238;2022-08-05T01:07:31;18.90;99.90
52323;DHT22;38263;52.920;6.238;2022-08-05T01:09:57;18.40;99.90
52323;DHT22;38263;52.920;6.238;2022-08-05T01:12:24;18.80;99.90
52323;DHT22;38263;52.920;6.238;2022-08-05T01:15:03;18.70;99.90
52323;DHT22;38263;52.920;6.238;2022-08-05T01:17:35;18.60;99.90
52323;DHT22;38263;52.920;6.238;2022-08-05T01:22:39;18.60;99.90
52323;DHT22;38263;52.920;6.238;2022-08-05T01:28:25;18.60;99.90
52323;DHT22;38263;52.920;6.238;2022-08-05T01:33:26;18.40;99.90
52323;DHT22;38263;52.920;6.238;2022-08-05T01:35:55;18.40;99.90
52323;DHT22;38263;52.920;6.238;2022-08-05T01:38:24;18.60;99.90
52323;DHT22;38263;52.920;6.238;2022-08-05T01:40:51;18.60;99.90
52323;DHT22;38263;52.920;6.238;2022-08-05T01:43:19;18.40;99.90
52323;DHT22;38263;52.920;6.238;2022-08-05T01:45:45;18.40;99.90
52323;DHT22;38263;52.920;6.238;2022-08-05T01:48:11;18.60;99.90
52323;DHT22;38263;52.920;6.238;2022-08-05T01:50:39;18.40;99.90
52323;DHT22;38263;52.920;6.238;2022-08-05T01:53:11;18.60;99.90
52323;DHT22;38263;52.920;6.238;2022-08-05T01:55:38;18.40;99.90
52323;DHT22;38263;52.920;6.238;2022-08-05T01:58:06;18.40;99.90
52323;DHT22;38263;52.920;6.238;2022-08-05T02:00:35;18.60;99.90
52323;DHT22;38263;52.920;6.238;2022-08-05T02:03:28;18.50;99.90
52323;DHT22;38263;52.920;6.238;2022-08-05T02:05:55;18.40;99.90
52323;DHT22;38263;52.920;6.238;2022-08-05T02:08:21;18.50;99.90
52323;DHT22;38263;52.920;6.238;2022-08-05T02:10:51;18.50;99.90
52323;DHT22;38263;52.920;6.238;2022-08-05T02:13:39;18.40;99.90
52323;DHT22;38263;52.920;6.238;2022-08-05T02:16:19;18.70;99.90
52323;DHT22;38263;52.920;6.238;2022-08-05T02:18:53;18.20;99.90
52323;DHT22;38263;52.920;6.238;2022-08-05T02:21:30;18.40;99.90
52323;DHT22;38263;52.920;6.238;2022-08-05T02:23:59;18.20;99.90
52323;DHT22;38263;52.920;6.238;2022-08-05T02:26:37;18.30;99.90
52323;DHT22;38263;52.920;6.238;2022-08-05T02:29:05;18.00;99.90
52323;DHT22;38263;52.920;6.238;2022-08-05T02:31:34;18.10;99.90
52323;DHT22;38263;52.920;6.238;2022-08-05T02:34:08;18.10;99.90
52323;DHT22;38263;52.920;6.238;2022-08-05T02:36:38;18.10;99.90
52323;DHT22;38263;52.920;6.238;2022-08-05T02:39:06;17.90;99.90
52323;DHT22;38263;52.920;6.238;2022-08-05T02:41:35;17.90;99.90
52323;DHT22;38263;52.920;6.238;2022-08-05T02:44:03;17.90;99.90
52323;DHT22;38263;52.920;6.238;2022-08-05T02:46:31;17.90;99.90
52323;DHT22;38263;52.920;6.238;2022-08-05T02:48:58;18.00;99.90
52323;DHT22;38263;52.920;6.238;2022-08-05T02:51:24;17.90;99.90
52323;DHT22;38263;52.920;6.238;2022-08-05T02:53:51;17.90;99.90
52323;DHT22;38263;52.920;6.238;2022-08-05T02:56:17;17.70;99.90
52323;DHT22;38263;52.920;6.238;2022-08-05T02:58:44;17.90;99.90
52323;DHT22;38263;52.920;6.238;2022-08-05T03:01:13;17.80;99.90
52323;DHT22;38263;52.920;6.238;2022-08-05T03:03:41;17.90;99.90
52323;DHT22;38263;52.920;6.238;2022-08-05T03:06:09;17.70;99.90
52323;DHT22;38263;52.920;6.238;2022-08-05T03:08:40;17.80;99.90
52323;DHT22;38263;52.920;6.238;2022-08-05T03:11:25;17.70;99.90
52323;DHT22;38263;52.920;6.238;2022-08-05T03:13:51;17.80;99.90
52323;DHT22;38263;52.920;6.238;2022-08-05T03:16:17;17.80;99.90
52323;DHT22;38263;52.920;6.238;2022-08-05T03:18:43;17.70;99.90
52323;DHT22;38263;52.920;6.238;2022-08-05T03:21:09;17.60;99.90
52323;DHT22;38263;52.920;6.238;2022-08-05T03:23:36;17.70;99.90
52323;DHT22;38263;52.920;6.238;2022-08-05T03:26:03;17.70;99.90
52323;DHT22;38263;52.920;6.238;2022-08-05T03:28:29;17.50;99.90
52323;DHT22;38263;52.920;6.238;2022-08-05T03:30:57;17.40;99.90
52323;DHT22;38263;52.920;6.238;2022-08-05T03:33:24;17.80;99.90
52323;DHT22;38263;52.920;6.238;2022-08-05T03:35:50;17.70;99.90
52323;DHT22;38263;52.920;6.238;2022-08-05T03:38:16;17.60;99.90
52323;DHT22;38263;52.920;6.238;2022-08-05T03:40:42;17.70;99.90
52323;DHT22;38263;52.920;6.238;2022-08-05T03:43:08;17.50;99.90
52323;DHT22;38263;52.920;6.238;2022-08-05T03:45:34;17.60;99.90
52323;DHT22;38263;52.920;6.238;2022-08-05T03:47:59;17.60;99.90
52323;DHT22;38263;52.920;6.238;2022-08-05T03:50:46;17.50;99.90
52323;DHT22;38263;52.920;6.238;2022-08-05T03:53:16;17.40;99.90
52323;DHT22;38263;52.920;6.238;2022-08-05T03:55:51;17.50;99.90
52323;DHT22;38263;52.920;6.238;2022-08-05T03:58:18;17.70;99.90
52323;DHT22;38263;52.920;6.238;2022-08-05T04:00:46;17.30;99.90
52323;DHT22;38263;52.920;6.238;2022-08-05T04:03:14;17.30;99.90
52323;DHT22;38263;52.920;6.238;2022-08-05T04:05:41;17.30;99.90
52323;DHT22;38263;52.920;6.238;2022-08-05T04:08:09;17.20;99.90
52323;DHT22;38263;52.920;6.238;2022-08-05T04:10:36;17.50;99.90
52323;DHT22;38263;52.920;6.238;2022-08-05T04:13:02;17.40;99.90
52323;DHT22;38263;52.920;6.238;2022-08-05T04:15:28;17.10;99.90
52323;DHT22;38263;52.920;6.238;2022-08-05T04:17:54;17.10;99.90
52323;DHT22;38263;52.920;6.238;2022-08-05T04:20:22;17.50;99.90
52323;DHT22;38263;52.920;6.238;2022-08-05T04:22:47;17.20;99.90
52323;DHT22;38263;52.920;6.238;2022-08-05T04:25:13;17.30;99.90
52323;DHT22;38263;52.920;6.238;2022-08-05T04:27:39;17.30;99.90
52323;DHT22;38263;52.920;6.238;2022-08-05T04:30:06;17.20;99.90
52323;DHT22;38263;52.920;6.238;2022-08-05T04:32:32;17.30;99.90
52323;DHT22;38263;52.920;6.238;2022-08-05T04:34:57;17.40;99.90
52323;DHT22;38263;52.920;6.238;2022-08-05T04:37:23;17.30;99.90
52323;DHT22;38263;52.920;6.238;2022-08-05T04:39:49;17.30;99.90
52323;DHT22;38263;52.920;6.238;2022-08-05T04:42:14;17.10;99.90
52323;DHT22;38263;52.920;6.238;2022-08-05T04:44:40;17.20;99.90
52323;DHT22;38263;52.920;6.238;2022-08-05T04:47:05;17.10;99.90
52323;DHT22;38263;52.920;6.238;2022-08-05T04:49:31;17.30;99.90
52323;DHT22;38263;52.920;6.238;2022-08-05T04:51:57;17.20;99.90
52323;DHT22;38263;52.920;6.238;2022-08-05T04:54:23;17.20;99.90
52323;DHT22;38263;52.920;6.238;2022-08-05T04:56:52;17.00;99.90
52323;DHT22;38263;52.920;6.238;2022-08-05T04:59:18;17.20;99.90
52323;DHT22;38263;52.920;6.238;2022-08-05T05:01:45;17.20;99.90
52323;DHT22;38263;52.920;6.238;2022-08-05T05:04:11;16.90;99.90
52323;DHT22;38263;52.920;6.238;2022-08-05T05:06:37;17.00;99.90
52323;DHT22;38263;52.920;6.238;2022-08-05T05:09:02;17.10;99.90
52323;DHT22;38263;52.920;6.238;2022-08-05T05:11:28;17.10;99.90
52323;DHT22;38263;52.920;6.238;2022-08-05T05:13:53;17.00;99.90
52323;DHT22;38263;52.920;6.238;2022-08-05T05:16:19;17.10;99.90
52323;DHT22;38263;52.920;6.238;2022-08-05T05:18:44;17.30;99.90
52323;DHT22;38263;52.920;6.238;2022-08-05T05:21:10;16.90;99.90
52323;DHT22;38263;52.920;6.238;2022-08-05T05:23:36;17.20;99.90
52323;DHT22;38263;52.920;6.238;2022-08-05T05:26:01;17.20;99.90
52323;DHT22;38263;52.920;6.238;2022-08-05T05:28:27;17.30;99.90
52323;DHT22;38263;52.920;6.238;2022-08-05T05:30:52;17.20;99.90
52323;DHT22;38263;52.920;6.238;2022-08-05T05:33:18;17.40;99.90
52323;DHT22;38263;52.920;6.238;2022-08-05T05:35:45;17.30;99.90
52323;DHT22;38263;52.920;6.238;2022-08-05T05:38:11;15.50;99.90
52323;DHT22;38263;52.920;6.238;2022-08-05T05:40:37;17.00;99.90
52323;DHT22;38263;52.920;6.238;2022-08-05T05:43:03;17.30;99.90
52323;DHT22;38263;52.920;6.238;2022-08-05T05:45:28;17.10;99.90
52323;DHT22;38263;52.920;6.238;2022-08-05T05:47:56;17.40;99.90
52323;DHT22;38263;52.920;6.238;2022-08-05T05:50:21;17.50;99.90
52323;DHT22;38263;52.920;6.238;2022-08-05T05:52:47;17.60;99.90
52323;DHT22;38263;52.920;6.238;2022-08-05T05:55:14;17.90;99.90
52323;DHT22;38263;52.920;6.238;2022-08-05T05:57:41;17.90;99.90
52323;DHT22;38263;52.920;6.238;2022-08-05T06:00:15;18.20;99.90
52323;DHT22;38263;52.920;6.238;2022-08-05T06:02:42;18.70;99.90
52323;DHT22;38263;52.920;6.238;2022-08-05T06:05:09;19.40;99.90
52323;DHT22;38263;52.920;6.238;2022-08-05T06:07:35;20.00;99.90
52323;DHT22;38263;52.920;6.238;2022-08-05T06:10:01;20.80;99.90
52323;DHT22;38263;52.920;6.238;2022-08-05T06:12:27;21.50;99.90
52323;DHT22;38263;52.920;6.238;2022-08-05T06:14:52;22.20;99.90
52323;DHT22;38263;52.920;6.238;2022-08-05T06:17:18;22.50;99.90
52323;DHT22;38263;52.920;6.238;2022-08-05T06:19:43;22.60;99.90
52323;DHT22;38263;52.920;6.238;2022-08-05T06:22:09;23.20;99.90
52323;DHT22;38263;52.920;6.238;2022-08-05T06:24:40;23.40;99.90
52323;DHT22;38263;52.920;6.238;2022-08-05T06:27:06;23.40;99.90
52323;DHT22;38263;52.920;6.238;2022-08-05T06:29:32;23.80;99.90
52323;DHT22;38263;52.920;6.238;2022-08-05T06:31:57;24.30;99.90
52323;DHT22;38263;52.920;6.238;2022-08-05T06:34:23;25.10;99.90
52323;DHT22;38263;52.920;6.238;2022-08-05T06:36:48;25.50;99.90
52323;DHT22;38263;52.920;6.238;2022-08-05T06:39:14;25.90;99.90
52323;DHT22;38263;52.920;6.238;2022-08-05T06:41:40;26.40;99.90
52323;DHT22;38263;52.920;6.238;2022-08-05T06:44:05;26.50;99.90
52323;DHT22;38263;52.920;6.238;2022-08-05T06:46:31;27.20;99.90
52323;DHT22;38263;52.920;6.238;2022-08-05T06:48:57;27.40;99.90
52323;DHT22;38263;52.920;6.238;2022-08-05T06:51:23;27.90;99.90
52323;DHT22;38263;52.920;6.238;2022-08-05T06:53:49;28.00;99.90
52323;DHT22;38263;52.920;6.238;2022-08-05T06:56:14;28.20;99.90
52323;DHT22;38263;52.920;6.238;2022-08-05T06:58:40;27.90;99.90
52323;DHT22;38263;52.920;6.238;2022-08-05T07:01:05;27.70;99.90
52323;DHT22;38263;52.920;6.238;2022-08-05T07:03:32;27.50;99.90
52323;DHT22;38263;52.920;6.238;2022-08-05T07:05:57;26.80;99.90
52323;DHT22;38263;52.920;6.238;2022-08-05T07:08:23;25.90;99.90
52323;DHT22;38263;52.920;6.238;2022-08-05T07:10:53;25.40;99.90
52323;DHT22;38263;52.920;6.238;2022-08-05T07:13:20;24.60;99.90
52323;DHT22;38263;52.920;6.238;2022-08-05T07:16:04;24.00;99.90
52323;DHT22;38263;52.920;6.238;2022-08-05T07:18:48;23.40;99.90
52323;DHT22;38263;52.920;6.238;2022-08-05T07:21:14;23.00;99.90
52323;DHT22;38263;52.920;6.238;2022-08-05T07:23:48;22.70;99.90
52323;DHT22;38263;52.920;6.238;2022-08-05T07:26:14;22.70;99.90
52323;DHT22;38263;52.920;6.238;2022-08-05T07:28:39;22.50;99.90
52323;DHT22;38263;52.920;6.238;2022-08-05T07:31:06;22.00;99.90
52323;DHT22;38263;52.920;6.238;2022-08-05T07:33:32;22.00;99.90
52323;DHT22;38263;52.920;6.238;2022-08-05T07:35:58;21.80;99.90
52323;DHT22;38263;52.920;6.238;2022-08-05T07:38:23;21.90;99.90
52323;DHT22;38263;52.920;6.238;2022-08-05T07:40:49;21.90;99.90
52323;DHT22;38263;52.920;6.238;2022-08-05T07:43:15;21.70;99.90
52323;DHT22;38263;52.920;6.238;2022-08-05T07:45:41;21.60;99.90
52323;DHT22;38263;52.920;6.238;2022-08-05T07:48:08;21.80;99.90
52323;DHT22;38263;52.920;6.238;2022-08-05T07:50:34;21.50;99.90
52323;DHT22;38263;52.920;6.238;2022-08-05T07:52:59;21.70;99.90
52323;DHT22;38263;52.920;6.238;2022-08-05T07:55:25;21.40;99.90
52323;DHT22;38263;52.920;6.238;2022-08-05T07:57:51;21.50;99.90
52323;DHT22;38263;52.920;6.238;2022-08-05T08:00:16;21.20;99.90
52323;DHT22;38263;52.920;6.238;2022-08-05T08:02:42;21.20;99.90
52323;DHT22;38263;52.920;6.238;2022-08-05T08:05:09;21.50;99.90
52323;DHT22;38263;52.920;6.238;2022-08-05T08:07:35;21.50;99.90
52323;DHT22;38263;52.920;6.238;2022-08-05T08:10:00;21.30;99.90
52323;DHT22;38263;52.920;6.238;2022-08-05T08:12:26;21.20;99.90
52323;DHT22;38263;52.920;6.238;2022-08-05T08:14:52;21.20;99.90
52323;DHT22;38263;52.920;6.238;2022-08-05T08:17:17;21.20;99.90
52323;DHT22;38263;52.920;6.238;2022-08-05T08:19:44;21.30;99.90
52323;DHT22;38263;52.920;6.238;2022-08-05T08:22:10;21.20;99.90
52323;DHT22;38263;52.920;6.238;2022-08-05T08:24:36;21.40;99.90
52323;DHT22;38263;52.920;6.238;2022-08-05T08:27:03;21.50;99.90
52323;DHT22;38263;52.920;6.238;2022-08-05T08:29:29;21.50;99.90
52323;DHT22;38263;52.920;6.238;2022-08-05T08:31:54;22.50;99.90
52323;DHT22;38263;52.920;6.238;2022-08-05T08:34:22;21.60;99.90
52323;DHT22;38263;52.920;6.238;2022-08-05T08:36:48;21.50;99.90
52323;DHT22;38263;52.920;6.238;2022-08-05T08:39:14;21.50;99.90
52323;DHT22;38263;52.920;6.238;2022-08-05T08:41:43;21.40;99.90
52323;DHT22;38263;52.920;6.238;2022-08-05T08:44:10;21.40;99.90
52323;DHT22;38263;52.920;6.238;2022-08-05T08:46:36;21.50;99.90
52323;DHT22;38263;52.920;6.238;2022-08-05T08:49:03;21.60;99.90
52323;DHT22;38263;52.920;6.238;2022-08-05T08:51:32;21.40;99.90
52323;DHT22;38263;52.920;6.238;2022-08-05T08:53:58;21.80;99.90
52323;DHT22;38263;52.920;6.238;2022-08-05T08:56:24;21.70;99.90
52323;DHT22;38263;52.920;6.238;2022-08-05T08:58:50;21.70;99.90
52323;DHT22;38263;52.920;6.238;2022-08-05T09:01:16;21.50;99.90
52323;DHT22;38263;52.920;6.238;2022-08-05T09:03:46;21.70;99.90
52323;DHT22;38263;52.920;6.238;2022-08-05T09:06:12;21.60;99.90
52323;DHT22;38263;52.920;6.238;2022-08-05T09:08:38;21.60;99.90
52323;DHT22;38263;52.920;6.238;2022-08-05T09:11:03;21.70;99.90
52323;DHT22;38263;52.920;6.238;2022-08-05T09:13:29;22.00;99.90
52323;DHT22;38263;52.920;6.238;2022-08-05T09:15:56;21.70;99.90
52323;DHT22;38263;52.920;6.238;2022-08-05T09:18:22;22.00;99.90
52323;DHT22;38263;52.920;6.238;2022-08-05T09:20:47;21.80;99.90
52323;DHT22;38263;52.920;6.238;2022-08-05T09:23:16;21.90;99.90
52323;DHT22;38263;52.920;6.238;2022-08-05T09:26:06;21.90;99.90
52323;DHT22;38263;52.920;6.238;2022-08-05T09:28:33;21.70;99.90
52323;DHT22;38263;52.920;6.238;2022-08-05T09:31:10;21.60;99.90
52323;DHT22;38263;52.920;6.238;2022-08-05T09:33:50;21.80;99.90
52323;DHT22;38263;52.920;6.238;2022-08-05T09:36:17;21.80;99.90
52323;DHT22;38263;52.920;6.238;2022-08-05T09:39:02;21.80;99.90
52323;DHT22;38263;52.920;6.238;2022-08-05T09:41:28;22.10;99.90
52323;DHT22;38263;52.920;6.238;2022-08-05T09:43:53;22.00;99.90
52323;DHT22;38263;52.920;6.238;2022-08-05T09:46:37;22.00;99.90
52323;DHT22;38263;52.920;6.238;2022-08-05T09:49:02;21.80;99.90
52323;DHT22;38263;52.920;6.238;2022-08-05T09:51:38;22.00;99.90
52323;DHT22;38263;52.920;6.238;2022-08-05T09:54:06;22.20;99.90
52323;DHT22;38263;52.920;6.238;2022-08-05T09:56:37;22.10;99.90
52323;DHT22;38263;52.920;6.238;2022-08-05T09:59:06;22.10;99.90
52323;DHT22;38263;52.920;6.238;2022-08-05T10:01:33;22.00;99.90
52323;DHT22;38263;52.920;6.238;2022-08-05T10:04:04;22.20;99.90
52323;DHT22;38263;52.920;6.238;2022-08-05T10:06:31;22.20;99.90
52323;DHT22;38263;52.920;6.238;2022-08-05T10:09:17;22.60;99.90
52323;DHT22;38263;52.920;6.238;2022-08-05T10:11:44;22.40;99.90
52323;DHT22;38263;52.920;6.238;2022-08-05T10:14:21;23.60;99.90
52323;DHT22;38263;52.920;6.238;2022-08-05T10:16:48;22.60;99.90
52323;DHT22;38263;52.920;6.238;2022-08-05T10:19:14;22.50;99.90
52323;DHT22;38263;52.920;6.238;2022-08-05T10:21:40;22.50;99.90
52323;DHT22;38263;52.920;6.238;2022-08-05T10:24:07;22.50;99.90
52323;DHT22;38263;52.920;6.238;2022-08-05T10:26:35;22.60;99.90
52323;DHT22;38263;52.920;6.238;2022-08-05T10:29:00;22.40;99.90
52323;DHT22;38263;52.920;6.238;2022-08-05T10:31:27;22.30;99.90
52323;DHT22;38263;52.920;6.238;2022-08-05T10:33:52;22.70;99.90
52323;DHT22;38263;52.920;6.238;2022-08-05T10:36:18;22.30;99.90
52323;DHT22;38263;52.920;6.238;2022-08-05T10:38:45;22.50;99.90
52323;DHT22;38263;52.920;6.238;2022-08-05T10:41:34;22.60;99.90
52323;DHT22;38263;52.920;6.238;2022-08-05T10:44:12;22.50;99.90
52323;DHT22;38263;52.920;6.238;2022-08-05T10:46:48;22.30;99.90
52323;DHT22;38263;52.920;6.238;2022-08-05T10:49:14;22.80;99.90
52323;DHT22;38263;52.920;6.238;2022-08-05T10:51:45;22.70;99.90
52323;DHT22;38263;52.920;6.238;2022-08-05T10:54:11;22.60;99.90
52323;DHT22;38263;52.920;6.238;2022-08-05T10:56:48;22.60;99.90
52323;DHT22;38263;52.920;6.238;2022-08-05T10:59:18;22.60;99.90
52323;DHT22;38263;52.920;6.238;2022-08-05T11:01:44;23.50;99.90
52323;DHT22;38263;52.920;6.238;2022-08-05T11:04:15;22.80;99.90
52323;DHT22;38263;52.920;6.238;2022-08-05T11:09:26;22.80;99.90
52323;DHT22;38263;52.920;6.238;2022-08-05T11:11:54;22.80;99.90
52323;DHT22;38263;52.920;6.238;2022-08-05T11:14:30;22.80;99.90
52323;DHT22;38263;52.920;6.238;2022-08-05T11:19:55;22.70;99.90
52323;DHT22;38263;52.920;6.238;2022-08-05T11:22:38;22.70;99.90
52323;DHT22;38263;52.920;6.238;2022-08-05T11:25:29;22.50;99.90
52323;DHT22;38263;52.920;6.238;2022-08-05T11:33:29;22.60;99.90
52323;DHT22;38263;52.920;6.238;2022-08-05T11:36:00;22.30;99.90
52323;DHT22;38263;52.920;6.238;2022-08-05T11:41:20;22.40;99.90
52323;DHT22;38263;52.920;6.238;2022-08-05T11:44:05;22.40;99.90
52323;DHT22;38263;52.920;6.238;2022-08-05T11:46:39;22.40;99.90
52323;DHT22;38263;52.920;6.238;2022-08-05T11:49:07;22.20;99.90
52323;DHT22;38263;52.920;6.238;2022-08-05T11:51:33;22.20;99.90
52323;DHT22;38263;52.920;6.238;2022-08-05T11:53:59;22.10;99.90
52323;DHT22;38263;52.920;6.238;2022-08-05T11:56:48;22.00;99.90
52323;DHT22;38263;52.920;6.238;2022-08-05T11:59:25;21.70;99.90
52323;DHT22;38263;52.920;6.238;2022-08-05T12:04:22;22.00;99.90
52323;DHT22;38263;52.920;6.238;2022-08-05T12:06:48;22.00;99.90
52323;DHT22;38263;52.920;6.238;2022-08-05T12:09:23;22.10;99.90
52323;DHT22;38263;52.920;6.238;2022-08-05T12:11:49;21.70;99.90
52323;DHT22;38263;52.920;6.238;2022-08-05T12:14:15;22.10;99.90
52323;DHT22;38263;52.920;6.238;2022-08-05T12:16:42;22.10;99.90
52323;DHT22;38263;52.920;6.238;2022-08-05T12:19:09;22.00;99.90
52323;DHT22;38263;52.920;6.238;2022-08-05T12:21:47;21.90;99.90
52323;DHT22;38263;52.920;6.238;2022-08-05T12:26:40;21.70;99.90
52323;DHT22;38263;52.920;6.238;2022-08-05T12:29:17;22.00;99.90
52323;DHT22;38263;52.920;6.238;2022-08-05T12:31:50;21.60;99.90
52323;DHT22;38263;52.920;6.238;2022-08-05T12:34:18;21.90;99.90
52323;DHT22;38263;52.920;6.238;2022-08-05T12:36:45;21.60;99.90
52323;DHT22;38263;52.920;6.238;2022-08-05T12:39:12;21.70;99.90
52323;DHT22;38263;52.920;6.238;2022-08-05T12:41:39;21.70;99.90
52323;DHT22;38263;52.920;6.238;2022-08-05T12:44:08;21.80;99.90
52323;DHT22;38263;52.920;6.238;2022-08-05T12:46:37;21.80;99.90
52323;DHT22;38263;52.920;6.238;2022-08-05T12:49:10;21.70;99.90
52323;DHT22;38263;52.920;6.238;2022-08-05T12:54:16;21.60;99.90
52323;DHT22;38263;52.920;6.238;2022-08-05T12:56:45;21.80;99.90
52323;DHT22;38263;52.920;6.238;2022-08-05T12:59:20;21.60;99.90
52323;DHT22;38263;52.920;6.238;2022-08-05T13:04:29;21.50;99.90
52323;DHT22;38263;52.920;6.238;2022-08-05T13:07:00;23.00;99.90
52323;DHT22;38263;52.920;6.238;2022-08-05T13:09:27;21.50;99.90
52323;DHT22;38263;52.920;6.238;2022-08-05T13:12:11;21.20;99.90
52323;DHT22;38263;52.920;6.238;2022-08-05T13:14:41;21.30;99.90
52323;DHT22;38263;52.920;6.238;2022-08-05T13:19:40;21.40;99.90
52323;DHT22;38263;52.920;6.238;2022-08-05T13:22:06;21.40;99.90
52323;DHT22;38263;52.920;6.238;2022-08-05T13:24:32;21.40;99.90
52323;DHT22;38263;52.920;6.238;2022-08-05T13:26:57;21.50;99.90
52323;DHT22;38263;52.920;6.238;2022-08-05T13:29:23;21.50;99.90
52323;DHT22;38263;52.920;6.238;2022-08-05T13:31:49;21.40;99.90
52323;DHT22;38263;52.920;6.238;2022-08-05T13:34:14;21.00;99.90
52323;DHT22;38263;52.920;6.238;2022-08-05T13:36:41;21.00;99.90
52323;DHT22;38263;52.920;6.238;2022-08-05T13:39:07;21.10;99.90
52323;DHT22;38263;52.920;6.238;2022-08-05T13:41:34;21.00;99.90
52323;DHT22;38263;52.920;6.238;2022-08-05T13:43:59;21.30;99.90
52323;DHT22;38263;52.920;6.238;2022-08-05T13:46:25;21.10;99.90
52323;DHT22;38263;52.920;6.238;2022-08-05T13:48:52;21.20;99.90
52323;DHT22;38263;52.920;6.238;2022-08-05T13:51:27;21.20;99.90
52323;DHT22;38263;52.920;6.238;2022-08-05T13:53:53;21.40;99.90
52323;DHT22;38263;52.920;6.238;2022-08-05T13:56:19;21.30;99.90
52323;DHT22;38263;52.920;6.238;2022-08-05T13:58:45;21.00;99.90
52323;DHT22;38263;52.920;6.238;2022-08-05T14:01:10;21.10;99.90
52323;DHT22;38263;52.920;6.238;2022-08-05T14:03:36;21.20;99.90
52323;DHT22;38263;52.920;6.238;2022-08-05T14:06:01;21.00;99.90
52323;DHT22;38263;52.920;6.238;2022-08-05T14:08:27;22.40;99.90
52323;DHT22;38263;52.920;6.238;2022-08-05T14:10:53;21.00;99.90
52323;DHT22;38263;52.920;6.238;2022-08-05T14:13:18;21.20;99.90
52323;DHT22;38263;52.920;6.238;2022-08-05T14:15:44;21.00;99.90
52323;DHT22;38263;52.920;6.238;2022-08-05T14:18:09;20.90;99.90
52323;DHT22;38263;52.920;6.238;2022-08-05T14:20:35;22.70;99.90
52323;DHT22;38263;52.920;6.238;2022-08-05T14:23:01;21.20;99.90
52323;DHT22;38263;52.920;6.238;2022-08-05T14:25:27;20.90;99.90
52323;DHT22;38263;52.920;6.238;2022-08-05T14:27:52;21.00;99.90
52323;DHT22;38263;52.920;6.238;2022-08-05T14:30:18;20.80;99.90
52323;DHT22;38263;52.920;6.238;2022-08-05T14:32:44;21.10;99.90
52323;DHT22;38263;52.920;6.238;2022-08-05T14:35:11;20.90;99.90
52323;DHT22;38263;52.920;6.238;2022-08-05T14:37:37;20.60;99.90
52323;DHT22;38263;52.920;6.238;2022-08-05T14:40:04;20.80;99.90
52323;DHT22;38263;52.920;6.238;2022-08-05T14:42:30;20.90;99.90
52323;DHT22;38263;52.920;6.238;2022-08-05T14:44:55;20.70;99.90
52323;DHT22;38263;52.920;6.238;2022-08-05T14:47:21;20.90;99.90
52323;DHT22;38263;52.920;6.238;2022-08-05T14:49:47;21.10;99.90
52323;DHT22;38263;52.920;6.238;2022-08-05T14:52:12;20.80;99.90
52323;DHT22;38263;52.920;6.238;2022-08-05T14:54:38;20.80;99.90
52323;DHT22;38263;52.920;6.238;2022-08-05T14:57:04;20.70;99.90
52323;DHT22;38263;52.920;6.238;2022-08-05T14:59:30;21.00;99.90
52323;DHT22;38263;52.920;6.238;2022-08-05T15:01:55;21.00;99.90
52323;DHT22;38263;52.920;6.238;2022-08-05T15:04:21;20.70;99.90
52323;DHT22;38263;52.920;6.238;2022-08-05T15:06:49;20.90;99.90
52323;DHT22;38263;52.920;6.238;2022-08-05T15:09:15;20.70;99.90
52323;DHT22;38263;52.920;6.238;2022-08-05T15:11:41;20.70;99.90
52323;DHT22;38263;52.920;6.238;2022-08-05T15:14:06;20.80;99.90
52323;DHT22;38263;52.920;6.238;2022-08-05T15:16:32;20.80;99.90
52323;DHT22;38263;52.920;6.238;2022-08-05T15:18:57;20.60;99.90
52323;DHT22;38263;52.920;6.238;2022-08-05T15:21:23;21.80;99.90
52323;DHT22;38263;52.920;6.238;2022-08-05T15:23:48;20.80;99.90
52323;DHT22;38263;52.920;6.238;2022-08-05T15:26:14;20.50;99.90
52323;DHT22;38263;52.920;6.238;2022-08-05T15:28:42;20.60;99.90
52323;DHT22;38263;52.920;6.238;2022-08-05T15:31:08;20.40;99.90
52323;DHT22;38263;52.920;6.238;2022-08-05T15:33:34;20.60;99.90
52323;DHT22;38263;52.920;6.238;2022-08-05T15:35:59;20.70;99.90
52323;DHT22;38263;52.920;6.238;2022-08-05T15:38:25;20.90;99.90
52323;DHT22;38263;52.920;6.238;2022-08-05T15:40:50;20.90;99.90
52323;DHT22;38263;52.920;6.238;2022-08-05T15:43:16;21.10;99.90
52323;DHT22;38263;52.920;6.238;2022-08-05T15:45:42;21.20;99.90
52323;DHT22;38263;52.920;6.238;2022-08-05T15:48:09;20.90;99.90
52323;DHT22;38263;52.920;6.238;2022-08-05T15:50:35;20.90;99.90
52323;DHT22;38263;52.920;6.238;2022-08-05T15:53:01;21.10;99.90
52323;DHT22;38263;52.920;6.238;2022-08-05T15:55:26;21.30;99.90
52323;DHT22;38263;52.920;6.238;2022-08-05T15:57:52;21.10;99.90
52323;DHT22;38263;52.920;6.238;2022-08-05T16:00:18;21.30;99.90
52323;DHT22;38263;52.920;6.238;2022-08-05T16:02:43;21.40;99.90
52323;DHT22;38263;52.920;6.238;2022-08-05T16:05:09;21.20;99.90
52323;DHT22;38263;52.920;6.238;2022-08-05T16:07:35;21.20;99.90
52323;DHT22;38263;52.920;6.238;2022-08-05T16:10:00;21.90;99.90